Time;durP1;ratioP1;P1;durP2;ratioP2;P2;SDS_P1;SDS_P2;PMS_P1;PMS_P2;Temp;Humidity;BMP_temperature;BMP_pressure;BME280_temperature;BME280_humidity;BME280_pressure;Samples;Min_cycle;Max_cycle;Signal;HPM_P1;HPM_P2
2021/07/12 00:00:41;;;;;;;14.57;11.60;;;17.50;83.40;;;;;;5011439;28;20037;-76
2021/07/12 00:03:07;;;;;;;14.98;11.40;;;17.40;83.30;;;;;;5009145;28;20038;-74
2021/07/12 00:05:33;;;;;;;17.13;11.82;;;17.30;83.50;;;;;;5011627;28;20495;-76
2021/07/12 00:07:58;;;;;;;15.45;12.65;;;17.10;84.00;;;;;;5009825;28;20087;-75
2021/07/12 00:10:26;;;;;;;13.27;11.45;;;17.10;84.30;;;;;;5008780;28;20026;-74
2021/07/12 00:12:53;;;;;;;13.07;11.48;;;17.10;84.50;;;;;;5010748;28;20469;-74
2021/07/12 00:15:22;;;;;;;13.77;11.73;;;17.10;84.50;;;;;;5008867;28;20477;-75
2021/07/12 00:17:48;;;;;;;14.80;11.32;;;17.10;84.50;;;;;;5009570;28;20041;-75
2021/07/12 00:20:15;;;;;;;12.57;10.93;;;17.20;84.50;;;;;;5041111;28;20037;-75
2021/07/12 00:22:42;;;;;;;13.68;10.55;;;17.20;84.30;;;;;;5009638;28;20041;-74
2021/07/12 00:25:09;;;;;;;13.52;11.20;;;17.30;84.30;;;;;;5019592;28;20038;-74
2021/07/12 00:27:35;;;;;;;14.05;10.82;;;17.30;84.30;;;;;;5009778;28;20041;-75
2021/07/12 00:30:03;;;;;;;12.32;10.75;;;17.40;84.30;;;;;;5010737;28;20593;-75
2021/07/12 00:32:29;;;;;;;12.70;11.05;;;17.40;84.10;;;;;;5010610;28;20084;-74
2021/07/12 00:34:55;;;;;;;12.90;10.80;;;17.40;83.80;;;;;;5009017;28;20088;-74
2021/07/12 00:37:20;;;;;;;14.45;11.35;;;17.30;83.60;;;;;;5010101;28;20504;-75
2021/07/12 00:39:46;;;;;;;13.27;11.25;;;17.40;83.70;;;;;;5009093;28;20038;-74
2021/07/12 00:42:11;;;;;;;11.95;9.77;;;17.40;83.60;;;;;;5017459;28;20045;-77
2021/07/12 00:44:37;;;;;;;13.20;10.63;;;17.40;83.60;;;;;;5010416;28;20034;-74
2021/07/12 00:47:05;;;;;;;12.23;10.27;;;17.40;83.50;;;;;;5010162;28;20034;-74
2021/07/12 00:49:31;;;;;;;14.05;11.65;;;17.30;83.50;;;;;;5009886;28;20026;-74
2021/07/12 00:51:57;;;;;;;16.10;11.30;;;17.30;83.50;;;;;;5010483;28;20038;-75
2021/07/12 00:54:27;;;;;;;14.00;11.88;;;17.30;83.40;;;;;;5016074;28;20033;-77
2021/07/12 00:56:54;;;;;;;13.68;11.10;;;17.30;83.60;;;;;;5015703;28;20393;-74
2021/07/12 00:59:21;;;;;;;13.55;10.82;;;17.30;83.70;;;;;;5010722;28;20033;-76
2021/07/12 01:01:46;;;;;;;12.77;11.15;;;17.30;83.80;;;;;;5005727;28;20136;-77
2021/07/12 01:04:12;;;;;;;13.07;10.80;;;17.30;84.00;;;;;;5002164;28;20125;-76
2021/07/12 01:06:38;;;;;;;11.60;9.95;;;17.30;84.00;;;;;;5012252;28;20185;-75
2021/07/12 01:09:04;;;;;;;12.80;10.07;;;17.40;84.00;;;;;;5029250;28;20029;-76
2021/07/12 01:11:44;;;;;;;12.80;11.10;;;17.50;84.00;;;;;;5029089;28;20041;-75
2021/07/12 01:14:34;;;;;;;13.13;10.43;;;17.50;83.90;;;;;;5010391;28;20034;-78
2021/07/12 01:17:08;;;;;;;14.10;10.95;;;17.50;83.60;;;;;;5040235;28;20045;-75
2021/07/12 01:20:07;;;;;;;12.30;10.18;;;17.50;83.80;;;;;;5015939;28;20053;-75
2021/07/12 01:22:51;;;;;;;12.80;10.85;;;17.50;83.90;;;;;;5035680;28;20034;-75
2021/07/12 01:25:38;;;;;;;13.73;10.93;;;17.50;84.00;;;;;;5017030;28;20054;-75
2021/07/12 01:28:25;;;;;;;14.23;12.27;;;17.50;84.00;;;;;;5032386;28;20033;-74
2021/07/12 01:31:19;;;;;;;16.17;12.38;;;17.30;83.90;;;;;;5027767;28;20080;-76
2021/07/12 01:34:36;;;;;;;16.63;12.70;;;17.30;84.10;;;;;;5021897;28;20029;-74
2021/07/12 01:37:17;;;;;;;14.00;12.02;;;17.20;84.40;;;;;;4986302;28;20046;-76
2021/07/12 01:39:52;;;;;;;15.05;12.02;;;17.10;84.50;;;;;;5026222;28;20068;-76
2021/07/12 01:42:26;;;;;;;14.63;12.65;;;17.20;84.50;;;;;;5028974;28;20025;-75
2021/07/12 01:44:57;;;;;;;15.82;12.85;;;17.20;84.60;;;;;;5013861;28;20041;-74
2021/07/12 01:47:32;;;;;;;15.55;11.65;;;17.20;84.50;;;;;;5026700;28;20025;-75
2021/07/12 01:50:24;;;;;;;17.65;13.38;;;17.20;84.50;;;;;;5018330;28;20079;-75
2021/07/12 01:53:05;;;;;;;16.58;13.35;;;17.20;84.50;;;;;;4999748;28;20037;-75
2021/07/12 01:55:53;;;;;;;19.67;16.40;;;17.20;84.50;;;;;;5019814;28;20057;-78
2021/07/12 01:58:47;;;;;;;18.60;16.08;;;17.10;84.70;;;;;;5027513;28;20107;-74
2021/07/12 02:01:14;;;;;;;18.63;16.05;;;17.10;85.00;;;;;;5025699;28;20121;-79
2021/07/12 02:03:41;;;;;;;18.80;15.38;;;17.10;85.00;;;;;;5022148;28;20068;-76
2021/07/12 02:06:09;;;;;;;18.77;16.80;;;17.10;85.10;;;;;;5028593;28;20042;-75
2021/07/12 02:08:43;;;;;;;21.98;16.80;;;17.10;85.10;;;;;;5031841;28;20029;-75
2021/07/12 02:11:09;;;;;;;21.88;18.30;;;17.10;85.40;;;;;;5021855;28;20037;-75
2021/07/12 02:13:37;;;;;;;19.17;16.77;;;17.10;85.70;;;;;;5031329;28;20038;-76
2021/07/12 02:16:05;;;;;;;19.13;16.35;;;17.10;85.70;;;;;;5031774;28;20037;-75
2021/07/12 02:18:33;;;;;;;18.58;15.98;;;17.20;85.60;;;;;;5027240;28;20507;-77
2021/07/12 02:21:00;;;;;;;21.35;18.17;;;17.20;85.60;;;;;;5012988;28;20038;-75
2021/07/12 02:23:26;;;;;;;23.35;18.70;;;17.20;85.40;;;;;;5029966;28;20068;-75
2021/07/12 02:25:53;;;;;;;20.80;17.73;;;17.10;85.60;;;;;;5032890;28;20048;-77
2021/07/12 02:28:20;;;;;;;20.98;18.52;;;17.10;85.60;;;;;;5030266;28;20080;-75
2021/07/12 02:30:47;;;;;;;19.05;16.58;;;17.10;85.70;;;;;;5026271;28;20046;-77
2021/07/12 02:33:14;;;;;;;20.33;18.13;;;17.10;85.90;;;;;;5018938;28;20084;-75
2021/07/12 02:35:41;;;;;;;18.92;16.73;;;17.10;85.80;;;;;;5011531;28;20048;-74
2021/07/12 02:38:08;;;;;;;17.35;14.77;;;17.10;85.80;;;;;;5012479;28;20120;-77
2021/07/12 02:40:34;;;;;;;18.73;16.08;;;17.00;85.70;;;;;;5010900;28;20357;-74
2021/07/12 02:43:01;;;;;;;19.60;15.75;;;17.00;85.80;;;;;;5013250;28;20030;-74
2021/07/12 02:45:29;;;;;;;17.27;13.55;;;17.00;86.00;;;;;;5009274;28;20120;-73
2021/07/12 02:47:55;;;;;;;16.95;13.70;;;16.90;85.90;;;;;;5012043;28;20168;-74
2021/07/12 02:50:22;;;;;;;16.35;13.80;;;16.90;85.90;;;;;;5008084;28;20125;-74
2021/07/12 02:53:06;;;;;;;16.15;13.32;;;16.80;86.00;;;;;;5012682;28;20030;-74
2021/07/12 02:55:31;;;;;;;15.93;13.15;;;16.80;85.90;;;;;;5009690;28;20045;-74
2021/07/12 02:57:57;;;;;;;17.25;13.57;;;16.80;86.10;;;;;;5012765;28;20034;-75
2021/07/12 03:00:23;;;;;;;15.50;12.48;;;16.90;86.10;;;;;;5024373;28;20368;-75
2021/07/12 03:02:49;;;;;;;15.27;12.27;;;16.90;86.10;;;;;;5032011;28;20056;-74
2021/07/12 03:05:14;;;;;;;14.40;12.07;;;16.90;86.10;;;;;;5019190;28;20397;-74
2021/07/12 03:08:04;;;;;;;15.25;13.65;;;16.90;86.10;;;;;;5025641;28;20396;-75
2021/07/12 03:10:30;;;;;;;15.55;12.70;;;16.90;86.00;;;;;;5021914;28;20042;-74
2021/07/12 03:13:02;;;;;;;16.15;12.35;;;16.90;85.80;;;;;;5012099;28;20042;-74
2021/07/12 03:15:39;;;;;;;14.85;12.82;;;16.90;85.70;;;;;;5022943;28;20037;-74
2021/07/12 03:18:17;;;;;;;14.38;11.63;;;16.90;85.50;;;;;;5027544;28;20037;-74
2021/07/12 03:20:45;;;;;;;16.65;12.05;;;16.80;85.60;;;;;;5030196;28;20102;-76
2021/07/12 03:23:13;;;;;;;14.15;11.65;;;16.80;85.70;;;;;;5033216;28;20393;-75
2021/07/12 03:25:45;;;;;;;15.55;12.30;;;16.70;85.70;;;;;;5019070;28;20037;-74
2021/07/12 03:28:12;;;;;;;16.00;12.68;;;16.70;85.80;;;;;;5009820;28;20034;-74
2021/07/12 03:30:40;;;;;;;15.30;12.95;;;16.70;86.10;;;;;;5011497;28;20030;-75
2021/07/12 03:33:06;;;;;;;17.15;13.55;;;16.70;86.20;;;;;;5011834;28;20033;-75
2021/07/12 03:35:41;;;;;;;16.75;13.25;;;16.60;86.40;;;;;;5011075;28;20041;-74
2021/07/12 03:38:07;;;;;;;16.73;13.43;;;16.60;86.60;;;;;;5009740;28;20362;-76
2021/07/12 03:40:33;;;;;;;15.68;13.95;;;16.60;86.80;;;;;;5010746;28;20034;-75
2021/07/12 03:43:00;;;;;;;14.65;12.50;;;16.60;86.90;;;;;;5043250;28;20057;-75
2021/07/12 03:45:25;;;;;;;14.98;13.05;;;16.60;86.90;;;;;;5021167;28;20124;-76
2021/07/12 03:47:51;;;;;;;14.82;12.73;;;16.60;87.00;;;;;;5031001;28;20120;-75
2021/07/12 03:50:17;;;;;;;16.92;12.63;;;16.60;87.00;;;;;;5029720;28;20037;-75
2021/07/12 03:52:47;;;;;;;18.77;13.57;;;16.70;86.90;;;;;;5028982;28;20495;-75
2021/07/12 03:55:15;;;;;;;16.63;13.15;;;16.70;86.80;;;;;;5026443;28;20041;-76
2021/07/12 03:57:41;;;;;;;18.23;12.82;;;16.70;86.70;;;;;;5013809;28;20073;-75
2021/07/12 04:00:09;;;;;;;13.45;11.73;;;16.70;86.50;;;;;;5010900;28;20030;-77
2021/07/12 04:02:36;;;;;;;15.48;11.95;;;16.70;86.50;;;;;;5010713;28;20117;-75
2021/07/12 04:05:03;;;;;;;15.52;12.38;;;16.80;86.60;;;;;;5009370;28;20412;-75
2021/07/12 04:07:28;;;;;;;14.63;13.05;;;16.80;86.50;;;;;;5010856;28;20026;-74
2021/07/12 04:09:54;;;;;;;14.80;12.10;;;16.80;86.60;;;;;;5010930;28;20033;-74
2021/07/12 04:12:23;;;;;;;15.13;12.05;;;16.80;86.70;;;;;;5008972;28;20061;-75
2021/07/12 04:14:54;;;;;;;17.20;12.75;;;16.80;86.70;;;;;;5009650;28;20494;-75
2021/07/12 04:17:20;;;;;;;16.27;12.25;;;16.80;86.40;;;;;;5010407;28;20064;-78
2021/07/12 04:19:47;;;;;;;14.13;11.73;;;16.80;86.50;;;;;;5009599;28;20030;-75
2021/07/12 04:22:13;;;;;;;15.05;11.93;;;16.80;86.50;;;;;;5008446;28;20088;-74
2021/07/12 04:24:39;;;;;;;18.02;12.25;;;16.80;86.50;;;;;;5021782;28;20392;-75
2021/07/12 04:27:05;;;;;;;16.50;12.27;;;16.80;86.50;;;;;;5020397;28;20493;-74
2021/07/12 04:29:31;;;;;;;15.43;12.43;;;16.80;86.50;;;;;;5025169;28;20022;-75
2021/07/12 04:32:00;;;;;;;13.30;11.20;;;16.80;86.60;;;;;;5024898;28;20371;-74
2021/07/12 04:34:26;;;;;;;15.95;12.90;;;16.80;86.70;;;;;;5024232;28;20066;-74
2021/07/12 04:36:51;;;;;;;18.60;12.80;;;16.80;86.60;;;;;;5027993;28;20057;-74
2021/07/12 04:39:17;;;;;;;16.58;12.75;;;16.90;86.50;;;;;;5028408;28;20480;-75
2021/07/12 04:41:43;;;;;;;16.35;12.63;;;16.90;86.30;;;;;;5029528;28;20029;-76
2021/07/12 04:44:09;;;;;;;15.18;12.32;;;16.90;86.40;;;;;;5008092;28;20033;-75
2021/07/12 04:46:34;;;;;;;16.25;11.68;;;17.00;86.50;;;;;;5008562;28;20500;-75
2021/07/12 04:49:00;;;;;;;18.65;12.35;;;16.90;86.20;;;;;;5010410;28;20037;-75
2021/07/12 04:51:26;;;;;;;18.02;12.50;;;17.00;86.30;;;;;;5010148;28;20452;-78
2021/07/12 04:53:51;;;;;;;15.77;12.35;;;17.10;85.80;;;;;;5008986;28;20174;-76
2021/07/12 04:56:17;;;;;;;15.10;12.60;;;17.10;85.90;;;;;;5008060;28;20070;-75
2021/07/12 04:58:45;;;;;;;16.95;12.57;;;17.10;85.80;;;;;;5008604;28;20061;-76
2021/07/12 05:01:12;;;;;;;17.58;12.60;;;17.20;85.70;;;;;;5009860;28;20548;-75
2021/07/12 05:03:38;;;;;;;17.98;11.90;;;17.20;85.20;;;;;;5008648;28;20536;-75
2021/07/12 05:06:03;;;;;;;14.18;11.65;;;17.30;85.50;;;;;;5009578;28;20171;-74
2021/07/12 05:08:29;;;;;;;15.95;11.68;;;17.30;85.30;;;;;;5006871;28;20034;-74
2021/07/12 05:10:55;;;;;;;16.50;11.98;;;17.40;85.10;;;;;;5010112;28;20105;-75
2021/07/12 05:13:22;;;;;;;13.85;11.07;;;17.40;84.80;;;;;;5007981;28;20046;-75
2021/07/12 05:15:47;;;;;;;14.45;11.07;;;17.40;84.90;;;;;;5008809;28;20042;-74
2021/07/12 05:18:13;;;;;;;15.95;12.80;;;17.50;85.00;;;;;;5008677;28;20038;-74
2021/07/12 05:20:39;;;;;;;13.02;11.27;;;17.60;84.70;;;;;;5009932;28;20044;-74
2021/07/12 05:23:05;;;;;;;14.18;11.85;;;17.60;84.70;;;;;;5008823;28;20492;-75
2021/07/12 05:25:31;;;;;;;15.27;12.38;;;17.60;84.50;;;;;;5010150;28;20069;-74
2021/07/12 05:27:56;;;;;;;15.18;11.90;;;17.70;84.60;;;;;;5041257;28;20036;-74
2021/07/12 05:30:22;;;;;;;16.30;12.38;;;17.70;84.30;;;;;;5008424;28;20038;-75
2021/07/12 05:32:48;;;;;;;15.10;12.45;;;17.70;83.70;;;;;;5008381;28;20382;-76
2021/07/12 05:35:15;;;;;;;16.88;14.18;;;17.80;84.00;;;;;;5009143;28;20054;-74
2021/07/12 05:37:40;;;;;;;14.95;12.52;;;17.80;83.50;;;;;;5009343;28;20028;-75
2021/07/12 05:40:07;;;;;;;13.32;11.52;;;17.80;83.40;;;;;;5007213;28;20125;-72
2021/07/12 05:42:34;;;;;;;12.90;11.32;;;17.90;83.70;;;;;;5014638;28;20523;-72
2021/07/12 05:45:00;;;;;;;14.27;11.55;;;18.00;83.20;;;;;;5014987;28;20393;-71
2021/07/12 05:47:25;;;;;;;12.77;10.40;;;18.00;83.40;;;;;;5015361;28;20042;-72
2021/07/12 05:49:51;;;;;;;13.80;11.70;;;18.00;83.50;;;;;;5016550;28;20037;-71
2021/07/12 05:52:17;;;;;;;13.88;11.20;;;18.10;83.30;;;;;;5014857;28;20146;-71
2021/07/12 05:54:42;;;;;;;12.63;10.90;;;18.10;83.00;;;;;;5018471;28;20057;-71
2021/07/12 05:57:08;;;;;;;12.55;10.30;;;18.10;83.10;;;;;;5015962;28;20034;-73
2021/07/12 05:59:34;;;;;;;14.27;11.48;;;18.20;82.90;;;;;;5015879;28;20030;-73
2021/07/12 06:01:59;;;;;;;12.85;10.57;;;18.30;82.70;;;;;;5047329;28;20038;-71
2021/07/12 06:04:26;;;;;;;12.88;10.77;;;18.40;82.50;;;;;;5014014;28;20466;-75
2021/07/12 06:06:52;;;;;;;12.90;10.60;;;18.50;82.00;;;;;;5016427;28;20120;-71
2021/07/12 06:09:17;;;;;;;12.82;11.20;;;18.50;82.00;;;;;;5014042;28;20125;-73
2021/07/12 06:11:43;;;;;;;15.45;10.68;;;18.50;81.90;;;;;;5015923;28;20515;-71
2021/07/12 06:14:08;;;;;;;14.30;10.95;;;18.50;81.80;;;;;;5023002;28;20086;-74
2021/07/12 06:16:34;;;;;;;12.95;11.18;;;18.40;81.90;;;;;;5047563;28;20042;-72
2021/07/12 06:19:00;;;;;;;13.85;11.85;;;18.30;81.90;;;;;;5014638;28;20034;-72
2021/07/12 06:21:26;;;;;;;14.65;11.48;;;18.40;82.30;;;;;;5024242;28;20049;-71
2021/07/12 06:23:52;;;;;;;14.50;12.38;;;18.30;82.40;;;;;;5029388;28;20041;-72
2021/07/12 06:26:17;;;;;;;14.93;11.55;;;18.30;82.70;;;;;;5033471;28;20439;-72
2021/07/12 06:28:43;;;;;;;16.50;12.13;;;18.20;82.70;;;;;;5035189;28;20544;-72
2021/07/12 06:31:09;;;;;;;14.20;11.65;;;18.30;82.70;;;;;;5024616;28;20370;-72
2021/07/12 06:33:36;;;;;;;12.68;11.02;;;18.30;83.10;;;;;;5019444;28;20045;-73
2021/07/12 06:36:01;;;;;;;15.15;12.30;;;18.40;82.80;;;;;;5026296;28;20093;-72
2021/07/12 06:38:29;;;;;;;15.35;11.93;;;18.40;82.70;;;;;;5026938;28;20036;-74
2021/07/12 06:40:55;;;;;;;13.05;11.20;;;18.50;82.70;;;;;;5028472;28;20033;-73
2021/07/12 06:43:20;;;;;;;13.50;10.98;;;18.50;82.80;;;;;;5023568;28;20116;-73
2021/07/12 06:45:46;;;;;;;12.50;10.50;;;18.60;82.30;;;;;;5033467;28;20026;-73
2021/07/12 06:48:11;;;;;;;12.13;9.55;;;18.70;82.20;;;;;;5026679;28;20885;-73
2021/07/12 06:50:37;;;;;;;13.13;11.00;;;18.70;82.20;;;;;;5035349;28;20037;-72
2021/07/12 06:53:03;;;;;;;13.98;11.73;;;18.80;82.00;;;;;;5033461;28;20033;-73
2021/07/12 06:55:29;;;;;;;14.38;11.10;;;18.70;81.50;;;;;;5021498;28;20053;-73
2021/07/12 06:57:55;;;;;;;13.30;11.07;;;18.80;81.70;;;;;;5012241;28;20487;-74
2021/07/12 07:00:20;;;;;;;13.23;11.15;;;18.90;81.50;;;;;;5011612;28;20071;-72
2021/07/12 07:02:46;;;;;;;12.20;10.57;;;19.00;81.10;;;;;;5012532;28;20030;-73
2021/07/12 07:05:12;;;;;;;11.52;9.60;;;19.10;80.90;;;;;;5011977;28;20088;-73
2021/07/12 07:07:38;;;;;;;13.52;10.90;;;19.10;80.70;;;;;;5010255;28;20094;-72
2021/07/12 07:10:06;;;;;;;13.20;9.80;;;19.20;80.80;;;;;;5011781;28;20034;-73
2021/07/12 07:12:32;;;;;;;12.35;9.52;;;19.40;80.50;;;;;;5011524;28;20041;-74
2021/07/12 07:14:57;;;;;;;14.85;8.88;;;19.50;80.00;;;;;;5010594;28;20049;-73
2021/07/12 07:17:24;;;;;;;16.55;8.60;;;19.60;79.70;;;;;;5011692;28;20073;-74
2021/07/12 07:19:51;;;;;;;10.55;8.23;;;19.80;78.50;;;;;;5011124;28;20029;-74
2021/07/12 07:22:17;;;;;;;13.35;7.30;;;20.00;78.60;;;;;;5010678;28;20045;-75
2021/07/12 07:24:43;;;;;;;10.23;7.95;;;20.10;77.80;;;;;;5021310;28;20037;-72
2021/07/12 07:27:09;;;;;;;11.27;7.70;;;20.30;77.00;;;;;;5014217;28;20038;-73
2021/07/12 07:29:35;;;;;;;10.27;7.63;;;20.50;77.50;;;;;;5041900;28;20149;-73
2021/07/12 07:32:01;;;;;;;10.85;7.72;;;20.60;76.60;;;;;;5043159;28;20114;-75
2021/07/12 07:34:28;;;;;;;11.82;7.40;;;20.80;75.40;;;;;;5011933;28;20076;-73
2021/07/12 07:36:56;;;;;;;11.45;7.93;;;21.00;75.50;;;;;;5004253;28;20034;-74
2021/07/12 07:39:22;;;;;;;10.40;7.32;;;21.20;74.80;;;;;;5010131;28;20033;-72
2021/07/12 07:41:48;;;;;;;9.75;7.20;;;21.30;74.60;;;;;;5010761;28;20040;-73
2021/07/12 07:44:14;;;;;;;9.32;6.82;;;21.50;74.30;;;;;;5009864;28;20029;-72
2021/07/12 07:46:40;;;;;;;8.93;6.20;;;21.50;73.80;;;;;;5011582;28;20069;-72
2021/07/12 07:49:07;;;;;;;9.57;6.40;;;21.60;72.20;;;;;;5010691;28;20038;-72
2021/07/12 07:51:35;;;;;;;11.18;6.03;;;21.60;72.40;;;;;;5013505;28;20112;-72
2021/07/12 07:54:01;;;;;;;15.75;6.18;;;21.50;72.70;;;;;;5010687;28;20029;-72
2021/07/12 07:56:26;;;;;;;8.43;5.63;;;21.60;71.40;;;;;;5021568;28;20037;-72
2021/07/12 07:58:52;;;;;;;9.40;5.88;;;21.70;71.20;;;;;;5029930;28;20045;-74
2021/07/12 08:01:18;;;;;;;9.32;5.82;;;21.60;72.20;;;;;;5020064;28;20444;-73
2021/07/12 08:03:43;;;;;;;11.13;6.30;;;21.80;71.90;;;;;;5009857;28;20042;-73
2021/07/12 08:06:09;;;;;;;8.93;5.50;;;22.00;72.00;;;;;;5010751;28;20152;-72
2021/07/12 08:08:35;;;;;;;9.77;6.03;;;22.00;71.50;;;;;;5009896;28;20029;-72
2021/07/12 08:11:01;;;;;;;9.02;4.97;;;22.10;71.40;;;;;;5010808;28;20092;-72
2021/07/12 08:13:26;;;;;;;10.00;5.25;;;22.10;70.20;;;;;;5029511;28;20168;-73
2021/07/12 08:15:52;;;;;;;9.50;4.90;;;22.20;70.00;;;;;;5014975;28;20049;-76
2021/07/12 08:18:18;;;;;;;7.88;4.50;;;22.30;69.50;;;;;;5029273;28;20049;-73
2021/07/12 08:20:45;;;;;;;7.20;4.25;;;22.40;68.10;;;;;;5024182;28;20034;-73
2021/07/12 08:23:13;;;;;;;7.32;4.18;;;22.40;67.80;;;;;;5026854;28;20028;-72
2021/07/12 08:25:39;;;;;;;8.73;4.22;;;22.30;68.30;;;;;;5004425;28;20037;-75
2021/07/12 08:28:05;;;;;;;9.57;4.40;;;22.50;67.60;;;;;;5009225;28;20053;-73
2021/07/12 08:30:31;;;;;;;10.52;4.63;;;22.60;68.00;;;;;;5010547;28;20042;-72
2021/07/12 08:32:57;;;;;;;7.70;3.80;;;22.60;67.50;;;;;;5009337;28;20026;-74
2021/07/12 08:35:23;;;;;;;9.98;4.20;;;22.60;67.80;;;;;;5010354;28;20057;-72
2021/07/12 08:37:49;;;;;;;8.30;4.82;;;22.50;68.00;;;;;;5013199;28;20116;-76
2021/07/12 08:40:21;;;;;;;11.40;4.90;;;22.40;66.60;;;;;;5008825;28;20419;-72
2021/07/12 08:42:57;;;;;;;7.28;4.32;;;22.30;67.70;;;;;;5042174;28;20100;-73
2021/07/12 08:45:24;;;;;;;8.05;4.28;;;22.20;68.10;;;;;;5010315;28;20054;-71
2021/07/12 08:47:51;;;;;;;10.50;4.75;;;22.30;69.10;;;;;;5009885;28;20048;-72
2021/07/12 08:50:17;;;;;;;7.57;4.25;;;22.30;69.30;;;;;;5041891;28;20037;-72
2021/07/12 08:52:45;;;;;;;8.68;4.32;;;22.30;70.20;;;;;;5009098;28;20031;-72
2021/07/12 08:55:11;;;;;;;8.13;4.72;;;22.30;69.70;;;;;;5009212;28;20052;-72
2021/07/12 08:57:37;;;;;;;7.82;4.72;;;22.30;69.60;;;;;;5008296;28;20461;-73
2021/07/12 09:00:06;;;;;;;7.22;4.35;;;22.40;69.80;;;;;;5009587;28;20032;-74
2021/07/12 09:02:34;;;;;;;8.38;5.03;;;22.40;69.90;;;;;;5004599;28;20033;-72
2021/07/12 09:05:00;;;;;;;9.52;5.72;;;22.50;70.40;;;;;;5010150;28;20038;-74
2021/07/12 09:07:28;;;;;;;10.40;6.47;;;22.60;71.00;;;;;;5010105;28;20495;-72
2021/07/12 09:10:13;;;;;;;10.57;7.18;;;22.60;71.20;;;;;;5007733;28;20584;-72
2021/07/12 09:12:50;;;;;;;11.48;6.53;;;22.60;70.70;;;;;;5023507;28;20524;-73
2021/07/12 09:15:18;;;;;;;9.68;5.60;;;22.70;70.20;;;;;;5028502;28;20091;-73
2021/07/12 09:17:46;;;;;;;11.55;7.03;;;22.80;70.40;;;;;;5029136;28;20109;-76
2021/07/12 09:20:23;;;;;;;11.45;6.18;;;22.90;69.80;;;;;;5027068;28;20489;-73
2021/07/12 09:22:49;;;;;;;10.50;6.15;;;23.00;69.60;;;;;;5029506;28;20034;-74
2021/07/12 09:25:14;;;;;;;11.68;6.28;;;23.10;69.50;;;;;;5026158;28;20084;-72
2021/07/12 09:27:42;;;;;;;10.57;6.22;;;23.00;69.50;;;;;;5009476;28;20025;-72
2021/07/12 09:30:12;;;;;;;11.15;6.15;;;23.00;70.10;;;;;;5017794;28;20030;-73
2021/07/12 09:32:39;;;;;;;9.05;6.25;;;23.00;70.70;;;;;;5021189;28;20029;-73
2021/07/12 09:35:15;;;;;;;10.65;6.20;;;22.90;71.10;;;;;;5026684;28;20045;-71
2021/07/12 09:37:43;;;;;;;9.90;6.18;;;22.80;70.60;;;;;;5008893;28;20480;-74
2021/07/12 09:40:14;;;;;;;9.82;5.32;;;22.70;70.70;;;;;;5028919;28;20423;-73
2021/07/12 09:42:46;;;;;;;9.05;5.50;;;22.70;71.20;;;;;;5026913;28;20022;-72
2021/07/12 09:45:14;;;;;;;11.52;5.57;;;22.60;71.30;;;;;;5027395;28;20443;-72
2021/07/12 09:47:46;;;;;;;10.20;5.60;;;22.50;71.50;;;;;;5027705;28;20053;-72
2021/07/12 09:50:15;;;;;;;8.20;5.07;;;22.50;71.90;;;;;;5027166;28;20034;-72
2021/07/12 09:52:48;;;;;;;9.20;5.22;;;22.40;72.30;;;;;;5008811;28;20030;-72
2021/07/12 09:55:26;;;;;;;7.80;4.60;;;22.40;73.10;;;;;;5026368;28;20052;-72
2021/07/12 09:58:16;;;;;;;11.35;5.25;;;22.30;73.20;;;;;;5021088;28;20493;-72
2021/07/12 10:00:47;;;;;;;9.05;5.35;;;22.40;73.90;;;;;;5027411;28;20029;-74
2021/07/12 10:03:15;;;;;;;9.90;5.60;;;22.40;73.70;;;;;;5016383;28;20060;-72
2021/07/12 10:05:41;;;;;;;8.75;5.20;;;22.40;72.90;;;;;;5014854;28;20121;-72
2021/07/12 10:08:07;;;;;;;8.63;4.90;;;22.40;72.80;;;;;;5028123;28;20041;-72
2021/07/12 10:10:33;;;;;;;9.00;5.07;;;22.60;72.40;;;;;;5029227;28;20037;-72
2021/07/12 10:13:00;;;;;;;10.32;6.05;;;22.60;72.00;;;;;;5028535;28;20056;-73
2021/07/12 10:15:25;;;;;;;8.88;5.53;;;22.60;72.20;;;;;;5015600;28;20046;-73
2021/07/12 10:17:51;;;;;;;9.63;5.35;;;22.70;71.40;;;;;;5008610;28;20465;-72
2021/07/12 10:20:17;;;;;;;9.00;5.57;;;22.80;72.20;;;;;;5009199;28;20474;-75
2021/07/12 10:22:43;;;;;;;9.00;5.50;;;22.90;71.30;;;;;;5009486;28;20430;-75
2021/07/12 10:25:18;;;;;;;9.68;5.65;;;22.80;70.60;;;;;;5018714;28;20049;-72
2021/07/12 10:27:56;;;;;;;9.48;5.65;;;22.90;71.20;;;;;;5010546;28;20026;-71
2021/07/12 10:30:45;;;;;;;13.07;6.18;;;23.00;70.60;;;;;;5023580;28;20060;-72
2021/07/12 10:33:12;;;;;;;10.48;5.43;;;22.90;70.00;;;;;;5032341;28;20026;-76
2021/07/12 10:35:50;;;;;;;9.73;5.70;;;22.80;69.80;;;;;;5030674;28;20094;-72
2021/07/12 10:38:17;;;;;;;9.00;5.85;;;23.00;70.10;;;;;;5030282;28;20040;-75
2021/07/12 10:40:46;;;;;;;8.98;5.45;;;23.10;70.80;;;;;;5032382;28;20048;-72
2021/07/12 10:43:31;;;;;;;9.73;5.70;;;23.30;70.80;;;;;;5031887;28;20061;-73
2021/07/12 10:45:56;;;;;;;8.88;5.20;;;23.50;69.40;;;;;;5018825;28;20365;-72
2021/07/12 10:48:35;;;;;;;9.25;5.57;;;23.50;67.90;;;;;;5030726;28;20040;-73
2021/07/12 10:51:19;;;;;;;10.85;5.28;;;23.50;68.20;;;;;;5032043;28;20041;-74
2021/07/12 10:54:05;;;;;;;8.85;4.97;;;23.60;68.70;;;;;;5030420;28;20030;-72
2021/07/12 10:56:57;;;;;;;11.30;5.25;;;23.70;68.30;;;;;;5030439;28;20050;-73
2021/07/12 10:59:30;;;;;;;8.45;4.80;;;23.80;68.70;;;;;;5017947;28;20084;-75
2021/07/12 11:01:57;;;;;;;8.90;5.38;;;24.00;67.40;;;;;;5012504;28;20531;-72
2021/07/12 11:04:39;;;;;;;8.70;4.70;;;24.10;65.80;;;;;;5023179;28;20033;-72
2021/07/12 11:07:07;;;;;;;7.88;4.95;;;24.10;66.20;;;;;;5015413;28;20037;-75
2021/07/12 11:09:47;;;;;;;10.52;4.70;;;24.10;66.10;;;;;;5028605;28;20120;-72
2021/07/12 11:12:29;;;;;;;7.55;4.40;;;24.10;66.70;;;;;;5030338;28;20481;-76
2021/07/12 11:15:18;;;;;;;8.18;4.95;;;24.20;67.90;;;;;;5030663;28;20167;-72
2021/07/12 11:17:51;;;;;;;7.80;4.45;;;24.30;67.10;;;;;;5023844;28;20559;-73
2021/07/12 11:20:37;;;;;;;9.57;4.70;;;24.30;65.40;;;;;;5025138;28;20045;-73
2021/07/12 11:23:02;;;;;;;7.90;4.30;;;24.30;65.90;;;;;;5008149;28;20042;-72
2021/07/12 11:25:42;;;;;;;7.85;4.05;;;24.20;66.10;;;;;;5033882;28;20033;-72
2021/07/12 11:28:14;;;;;;;7.32;4.22;;;24.30;65.90;;;;;;5029743;28;20041;-73
2021/07/12 11:30:40;;;;;;;6.75;3.97;;;24.10;66.20;;;;;;5029330;28;20424;-74
2021/07/12 11:33:07;;;;;;;12.02;4.68;;;24.10;66.20;;;;;;5031128;28;20083;-72
2021/07/12 11:35:33;;;;;;;8.18;4.25;;;24.10;66.70;;;;;;5029925;28;20046;-72
2021/07/12 11:38:00;;;;;;;8.38;3.75;;;23.90;67.40;;;;;;5029728;28;20034;-72
2021/07/12 11:40:26;;;;;;;7.47;5.05;;;23.90;68.40;;;;;;5027342;28;20156;-73
2021/07/12 11:42:52;;;;;;;7.72;4.00;;;23.70;68.40;;;;;;5010445;28;20312;-72
2021/07/12 11:45:19;;;;;;;8.10;3.67;;;23.60;68.70;;;;;;5013538;28;20405;-72
2021/07/12 11:47:56;;;;;;;7.70;3.28;;;23.50;67.50;;;;;;5022713;28;20026;-73
2021/07/12 11:50:28;;;;;;;6.32;3.47;;;23.40;67.70;;;;;;5009297;28;20034;-72
2021/07/12 11:52:57;;;;;;;8.00;4.10;;;23.30;68.30;;;;;;5025846;28;20030;-72
2021/07/12 11:55:27;;;;;;;7.28;3.63;;;23.20;68.20;;;;;;5030920;28;20045;-72
2021/07/12 11:57:59;;;;;;;8.20;3.63;;;23.10;68.90;;;;;;5021178;28;20029;-72
2021/07/12 12:00:32;;;;;;;6.50;3.42;;;23.10;69.10;;;;;;5011298;28;20026;-71
2021/07/12 12:03:00;;;;;;;7.47;3.72;;;23.10;69.40;;;;;;5002067;28;20070;-71
2021/07/12 12:05:28;;;;;;;6.75;3.90;;;23.10;69.60;;;;;;5026214;28;20504;-75
2021/07/12 12:07:58;;;;;;;8.15;4.47;;;23.10;70.10;;;;;;5024979;28;20033;-71
2021/07/12 12:10:40;;;;;;;7.65;4.53;;;23.10;69.90;;;;;;5029390;28;20124;-72
2021/07/12 12:13:12;;;;;;;10.07;4.45;;;23.10;70.40;;;;;;5029968;28;20049;-72
2021/07/12 12:15:44;;;;;;;8.70;5.60;;;23.00;70.60;;;;;;5028505;28;20038;-73
2021/07/12 12:18:16;;;;;;;7.45;4.50;;;22.90;70.80;;;;;;5021315;28;20385;-73
2021/07/12 12:20:46;;;;;;;7.85;4.45;;;22.90;71.70;;;;;;5031379;28;20486;-72
2021/07/12 12:23:15;;;;;;;9.73;5.05;;;22.90;71.80;;;;;;5028988;28;20044;-72
2021/07/12 12:25:41;;;;;;;7.40;4.90;;;22.80;71.80;;;;;;5032619;28;20440;-73
2021/07/12 12:28:07;;;;;;;9.95;4.45;;;22.90;73.60;;;;;;5029619;28;20068;-72
2021/07/12 12:30:35;;;;;;;8.55;4.90;;;22.90;74.10;;;;;;5030680;28;20112;-72
2021/07/12 12:33:01;;;;;;;9.60;5.68;;;22.90;73.80;;;;;;5028774;28;20033;-73
2021/07/12 12:35:29;;;;;;;9.50;5.38;;;22.80;75.30;;;;;;5030523;28;20041;-73
2021/07/12 12:38:08;;;;;;;10.75;5.05;;;22.80;76.10;;;;;;5029418;28;20036;-74
2021/07/12 12:40:34;;;;;;;9.45;5.20;;;22.70;74.10;;;;;;5022840;28;20041;-73
2021/07/12 12:43:09;;;;;;;9.18;5.10;;;22.70;74.90;;;;;;5028350;28;20397;-74